sensor_id;sensor_type;location;lat;lon;timestamp;pressure;altitude;pressure_sealevel;temperature;humidity
55010;BME280;40903;51.638;7.528;2022-07-10T00:00:51;102050.47;;;14.45;70.78
55010;BME280;40903;51.638;7.528;2022-07-10T00:03:18;102060.34;;;14.51;70.67
55010;BME280;40903;51.638;7.528;2022-07-10T00:05:44;102049.06;;;14.52;70.80
55010;BME280;40903;51.638;7.528;2022-07-10T00:08:09;102057.00;;;14.54;70.89
55010;BME280;40903;51.638;7.528;2022-07-10T00:10:34;102055.59;;;14.56;70.54
55010;BME280;40903;51.638;7.528;2022-07-10T00:13:00;102046.00;;;14.59;70.57
55010;BME280;40903;51.638;7.528;2022-07-10T00:15:25;102048.47;;;14.60;70.47
55010;BME280;40903;51.638;7.528;2022-07-10T00:17:51;102047.34;;;14.61;70.47
55010;BME280;40903;51.638;7.528;2022-07-10T00:20:16;102045.16;;;14.63;70.54
55010;BME280;40903;51.638;7.528;2022-07-10T00:22:42;102039.38;;;14.65;70.77
55010;BME280;40903;51.638;7.528;2022-07-10T00:25:10;102035.53;;;14.66;70.84
55010;BME280;40903;51.638;7.528;2022-07-10T00:27:36;102036.06;;;14.68;71.04
55010;BME280;40903;51.638;7.528;2022-07-10T00:30:02;102033.31;;;14.68;71.26
55010;BME280;40903;51.638;7.528;2022-07-10T00:32:28;102023.97;;;14.69;71.75
55010;BME280;40903;51.638;7.528;2022-07-10T00:34:53;102025.88;;;14.73;71.81
55010;BME280;40903;51.638;7.528;2022-07-10T00:37:19;102018.16;;;14.75;72.01
55010;BME280;40903;51.638;7.528;2022-07-10T00:39:47;102024.75;;;14.74;71.84
55010;BME280;40903;51.638;7.528;2022-07-10T00:42:13;102023.66;;;14.75;72.14
55010;BME280;40903;51.638;7.528;2022-07-10T00:44:43;102026.38;;;14.75;72.25
55010;BME280;40903;51.638;7.528;2022-07-10T00:47:10;102018.97;;;14.76;72.18
55010;BME280;40903;51.638;7.528;2022-07-10T00:49:36;102018.69;;;14.77;72.19
55010;BME280;40903;51.638;7.528;2022-07-10T00:52:04;102023.88;;;14.79;72.21
55010;BME280;40903;51.638;7.528;2022-07-10T00:54:32;102021.13;;;14.79;71.95
55010;BME280;40903;51.638;7.528;2022-07-10T00:56:58;102014.84;;;14.78;72.25
55010;BME280;40903;51.638;7.528;2022-07-10T00:59:24;102012.88;;;14.79;72.32
55010;BME280;40903;51.638;7.528;2022-07-10T01:01:50;102007.69;;;14.77;72.50
55010;BME280;40903;51.638;7.528;2022-07-10T01:04:16;102005.53;;;14.74;72.28
55010;BME280;40903;51.638;7.528;2022-07-10T01:06:41;102007.44;;;14.74;71.95
55010;BME280;40903;51.638;7.528;2022-07-10T01:09:07;102012.41;;;14.72;71.95
55010;BME280;40903;51.638;7.528;2022-07-10T01:11:33;102008.03;;;14.71;71.96
55010;BME280;40903;51.638;7.528;2022-07-10T01:14:00;102012.69;;;14.70;72.25
55010;BME280;40903;51.638;7.528;2022-07-10T01:16:26;102015.72;;;14.69;72.28
55010;BME280;40903;51.638;7.528;2022-07-10T01:18:51;102015.72;;;14.69;72.53
55010;BME280;40903;51.638;7.528;2022-07-10T01:21:33;102014.63;;;14.70;72.59
55010;BME280;40903;51.638;7.528;2022-07-10T01:24:00;102005.56;;;14.69;72.70
55010;BME280;40903;51.638;7.528;2022-07-10T01:26:28;101994.56;;;14.69;72.87
55010;BME280;40903;51.638;7.528;2022-07-10T01:28:54;101988.28;;;14.69;73.11
55010;BME280;40903;51.638;7.528;2022-07-10T01:31:24;101985.81;;;14.67;73.24
55010;BME280;40903;51.638;7.528;2022-07-10T01:33:50;101984.47;;;14.65;72.91
55010;BME280;40903;51.638;7.528;2022-07-10T01:36:16;101980.63;;;14.66;72.93
55010;BME280;40903;51.638;7.528;2022-07-10T01:38:41;101979.50;;;14.67;73.06
55010;BME280;40903;51.638;7.528;2022-07-10T01:41:07;101972.66;;;14.64;72.93
55010;BME280;40903;51.638;7.528;2022-07-10T01:43:35;101985.84;;;14.62;73.03
55010;BME280;40903;51.638;7.528;2022-07-10T01:46:01;101988.88;;;14.61;73.42
55010;BME280;40903;51.638;7.528;2022-07-10T01:48:26;101980.06;;;14.64;73.20
55010;BME280;40903;51.638;7.528;2022-07-10T01:50:51;101984.22;;;14.56;72.94
55010;BME280;40903;51.638;7.528;2022-07-10T01:53:17;101980.72;;;14.51;73.59
55010;BME280;40903;51.638;7.528;2022-07-10T01:55:42;101981.56;;;14.46;73.86
55010;BME280;40903;51.638;7.528;2022-07-10T01:58:08;101984.06;;;14.43;73.94
55010;BME280;40903;51.638;7.528;2022-07-10T02:00:33;101976.41;;;14.40;74.19
55010;BME280;40903;51.638;7.528;2022-07-10T02:02:59;101984.91;;;14.38;74.40
55010;BME280;40903;51.638;7.528;2022-07-10T02:05:42;101979.72;;;14.37;74.63
55010;BME280;40903;51.638;7.528;2022-07-10T02:08:07;101981.09;;;14.34;74.67
55010;BME280;40903;51.638;7.528;2022-07-10T02:10:33;101977.28;;;14.30;74.96
55010;BME280;40903;51.638;7.528;2022-07-10T02:12:58;101974.28;;;14.27;74.93
55010;BME280;40903;51.638;7.528;2022-07-10T02:15:24;101974.28;;;14.27;74.72
55010;BME280;40903;51.638;7.528;2022-07-10T02:17:49;101973.75;;;14.25;74.47
55010;BME280;40903;51.638;7.528;2022-07-10T02:20:14;101979.53;;;14.23;74.92
55010;BME280;40903;51.638;7.528;2022-07-10T02:22:40;101968.59;;;14.18;75.10
55010;BME280;40903;51.638;7.528;2022-07-10T02:25:06;101971.59;;;14.17;75.29
55010;BME280;40903;51.638;7.528;2022-07-10T02:27:31;101971.34;;;14.13;75.85
55010;BME280;40903;51.638;7.528;2022-07-10T02:29:57;101969.41;;;14.14;75.99
55010;BME280;40903;51.638;7.528;2022-07-10T02:32:22;101963.91;;;14.14;76.02
55010;BME280;40903;51.638;7.528;2022-07-10T02:34:47;101968.84;;;14.17;76.32
55010;BME280;40903;51.638;7.528;2022-07-10T02:37:13;101957.09;;;14.16;76.34
55010;BME280;40903;51.638;7.528;2022-07-10T02:39:38;101955.13;;;14.17;76.57
55010;BME280;40903;51.638;7.528;2022-07-10T02:42:04;101952.41;;;14.17;76.70
55010;BME280;40903;51.638;7.528;2022-07-10T02:44:29;101960.91;;;14.15;76.51
55010;BME280;40903;51.638;7.528;2022-07-10T02:46:55;101957.31;;;14.15;76.40
55010;BME280;40903;51.638;7.528;2022-07-10T02:49:20;101952.94;;;14.19;76.53
55010;BME280;40903;51.638;7.528;2022-07-10T02:51:45;101945.53;;;14.19;76.61
55010;BME280;40903;51.638;7.528;2022-07-10T02:54:11;101937.56;;;14.18;76.58
55010;BME280;40903;51.638;7.528;2022-07-10T02:56:36;101950.44;;;14.22;75.94
55010;BME280;40903;51.638;7.528;2022-07-10T02:59:02;101938.66;;;14.22;76.28
55010;BME280;40903;51.638;7.528;2022-07-10T03:01:27;101945.78;;;14.23;76.15
55010;BME280;40903;51.638;7.528;2022-07-10T03:03:52;101938.94;;;14.20;76.20
55010;BME280;40903;51.638;7.528;2022-07-10T03:06:18;101933.44;;;14.20;76.30
55010;BME280;40903;51.638;7.528;2022-07-10T03:08:43;101935.09;;;14.21;75.72
55010;BME280;40903;51.638;7.528;2022-07-10T03:11:08;101942.78;;;14.19;76.52
55010;BME280;40903;51.638;7.528;2022-07-10T03:13:34;101931.81;;;14.19;76.69
55010;BME280;40903;51.638;7.528;2022-07-10T03:15:59;101932.09;;;14.18;76.68
55010;BME280;40903;51.638;7.528;2022-07-10T03:18:25;101937.88;;;14.16;76.99
55010;BME280;40903;51.638;7.528;2022-07-10T03:20:50;101943.59;;;14.15;76.68
55010;BME280;40903;51.638;7.528;2022-07-10T03:23:15;101931.56;;;14.16;76.84
55010;BME280;40903;51.638;7.528;2022-07-10T03:25:41;101929.88;;;14.15;77.15
55010;BME280;40903;51.638;7.528;2022-07-10T03:28:06;101935.13;;;14.11;76.82
55010;BME280;40903;51.638;7.528;2022-07-10T03:30:31;101933.78;;;14.09;77.15
55010;BME280;40903;51.638;7.528;2022-07-10T03:32:57;101936.00;;;14.07;77.18
55010;BME280;40903;51.638;7.528;2022-07-10T03:35:22;101944.75;;;14.04;77.22
55010;BME280;40903;51.638;7.528;2022-07-10T03:37:47;101942.31;;;14.02;76.99
55010;BME280;40903;51.638;7.528;2022-07-10T03:40:13;101948.38;;;13.99;77.23
55010;BME280;40903;51.638;7.528;2022-07-10T03:42:38;101950.28;;;13.99;77.59
55010;BME280;40903;51.638;7.528;2022-07-10T03:45:04;101948.06;;;14.01;77.53
55010;BME280;40903;51.638;7.528;2022-07-10T03:47:29;101952.47;;;14.02;77.92
55010;BME280;40903;51.638;7.528;2022-07-10T03:49:55;101950.81;;;14.01;78.14
55010;BME280;40903;51.638;7.528;2022-07-10T03:52:20;101953.28;;;14.02;78.23
55010;BME280;40903;51.638;7.528;2022-07-10T03:54:45;101957.41;;;14.05;78.31
55010;BME280;40903;51.638;7.528;2022-07-10T03:57:11;101954.09;;;14.08;78.35
55010;BME280;40903;51.638;7.528;2022-07-10T03:59:55;101958.16;;;14.10;78.60
55010;BME280;40903;51.638;7.528;2022-07-10T04:02:20;101955.69;;;14.14;78.55
55010;BME280;40903;51.638;7.528;2022-07-10T04:04:46;101944.72;;;14.14;78.63
55010;BME280;40903;51.638;7.528;2022-07-10T04:07:11;101947.44;;;14.14;78.20
55010;BME280;40903;51.638;7.528;2022-07-10T04:09:37;101952.94;;;14.19;77.83
55010;BME280;40903;51.638;7.528;2022-07-10T04:12:03;101948.00;;;14.21;77.65
55010;BME280;40903;51.638;7.528;2022-07-10T04:14:29;101949.34;;;14.23;77.76
55010;BME280;40903;51.638;7.528;2022-07-10T04:16:54;101949.59;;;14.27;77.97
55010;BME280;40903;51.638;7.528;2022-07-10T04:19:19;101949.03;;;14.30;78.15
55010;BME280;40903;51.638;7.528;2022-07-10T04:21:46;101944.84;;;14.37;77.09
55010;BME280;40903;51.638;7.528;2022-07-10T04:24:12;101945.16;;;14.36;77.41
55010;BME280;40903;51.638;7.528;2022-07-10T04:26:37;101945.97;;;14.36;77.35
55010;BME280;40903;51.638;7.528;2022-07-10T04:29:02;101944.56;;;14.39;77.73
55010;BME280;40903;51.638;7.528;2022-07-10T04:31:27;101948.13;;;14.39;77.80
55010;BME280;40903;51.638;7.528;2022-07-10T04:33:53;101945.38;;;14.44;77.72
55010;BME280;40903;51.638;7.528;2022-07-10T04:36:18;101946.69;;;14.47;77.53
55010;BME280;40903;51.638;7.528;2022-07-10T04:38:44;101943.09;;;14.51;77.31
55010;BME280;40903;51.638;7.528;2022-07-10T04:41:09;101940.34;;;14.51;77.42
55010;BME280;40903;51.638;7.528;2022-07-10T04:43:35;101943.34;;;14.55;77.28
55010;BME280;40903;51.638;7.528;2022-07-10T04:46:00;101945.00;;;14.56;77.36
55010;BME280;40903;51.638;7.528;2022-07-10T04:48:25;101947.16;;;14.59;77.11
55010;BME280;40903;51.638;7.528;2022-07-10T04:50:51;101951.53;;;14.60;76.75
55010;BME280;40903;51.638;7.528;2022-07-10T04:53:17;101943.28;;;14.65;76.55
55010;BME280;40903;51.638;7.528;2022-07-10T04:55:42;101945.44;;;14.68;76.58
55010;BME280;40903;51.638;7.528;2022-07-10T04:58:07;101953.63;;;14.73;77.02
55010;BME280;40903;51.638;7.528;2022-07-10T05:00:33;101950.28;;;14.81;77.29
55010;BME280;40903;51.638;7.528;2022-07-10T05:02:58;101959.00;;;14.88;76.69
55010;BME280;40903;51.638;7.528;2022-07-10T05:05:23;101956.50;;;14.91;76.37
55010;BME280;40903;51.638;7.528;2022-07-10T05:07:49;101958.06;;;14.97;75.52
55010;BME280;40903;51.638;7.528;2022-07-10T05:10:14;101953.94;;;15.00;75.19
55010;BME280;40903;51.638;7.528;2022-07-10T05:12:39;101960.22;;;15.05;75.71
55010;BME280;40903;51.638;7.528;2022-07-10T05:15:05;101961.25;;;15.09;75.61
55010;BME280;40903;51.638;7.528;2022-07-10T05:17:30;101960.16;;;15.10;75.83
55010;BME280;40903;51.638;7.528;2022-07-10T05:19:59;101960.41;;;15.14;75.79
55010;BME280;40903;51.638;7.528;2022-07-10T05:22:25;101959.72;;;15.27;75.17
55010;BME280;40903;51.638;7.528;2022-07-10T05:24:51;101965.34;;;15.40;73.19
55010;BME280;40903;51.638;7.528;2022-07-10T05:27:16;101964.59;;;15.58;72.33
55010;BME280;40903;51.638;7.528;2022-07-10T05:29:45;101952.53;;;15.77;71.88
55010;BME280;40903;51.638;7.528;2022-07-10T05:32:10;101963.84;;;15.94;71.44
55010;BME280;40903;51.638;7.528;2022-07-10T05:34:35;101959.47;;;16.12;70.91
55010;BME280;40903;51.638;7.528;2022-07-10T05:37:01;101962.25;;;16.30;70.01
55010;BME280;40903;51.638;7.528;2022-07-10T05:39:26;101961.72;;;16.47;66.48
55010;BME280;40903;51.638;7.528;2022-07-10T05:41:52;101967.59;;;16.59;66.97
55010;BME280;40903;51.638;7.528;2022-07-10T05:44:18;101963.69;;;16.78;66.44
55010;BME280;40903;51.638;7.528;2022-07-10T05:46:44;101964.97;;;16.99;64.92
55010;BME280;40903;51.638;7.528;2022-07-10T05:49:10;101967.78;;;17.26;64.84
55010;BME280;40903;51.638;7.528;2022-07-10T05:51:35;101976.03;;;17.58;63.08
55010;BME280;40903;51.638;7.528;2022-07-10T05:54:00;101960.16;;;17.77;61.92
55010;BME280;40903;51.638;7.528;2022-07-10T05:56:26;101965.59;;;17.82;59.80
55010;BME280;40903;51.638;7.528;2022-07-10T05:58:51;101962.34;;;17.80;59.76
55010;BME280;40903;51.638;7.528;2022-07-10T06:01:17;101953.44;;;17.83;59.20
55010;BME280;40903;51.638;7.528;2022-07-10T06:03:42;101957.81;;;17.71;60.75
55010;BME280;40903;51.638;7.528;2022-07-10T06:06:08;101957.81;;;17.71;60.69
55010;BME280;40903;51.638;7.528;2022-07-10T06:08:33;101960.16;;;17.77;61.78
55010;BME280;40903;51.638;7.528;2022-07-10T06:10:58;101967.53;;;17.82;60.89
55010;BME280;40903;51.638;7.528;2022-07-10T06:13:24;101963.56;;;17.88;60.98
55010;BME280;40903;51.638;7.528;2022-07-10T06:15:49;101956.88;;;18.02;61.13
55010;BME280;40903;51.638;7.528;2022-07-10T06:18:14;101966.31;;;18.23;58.14
55010;BME280;40903;51.638;7.528;2022-07-10T06:20:39;101955.63;;;18.57;60.15
55010;BME280;40903;51.638;7.528;2022-07-10T06:23:05;101962.00;;;18.66;57.84
55010;BME280;40903;51.638;7.528;2022-07-10T06:25:30;101971.69;;;18.77;56.36
55010;BME280;40903;51.638;7.528;2022-07-10T06:27:55;101973.56;;;18.90;57.13
55010;BME280;40903;51.638;7.528;2022-07-10T06:30:21;101972.69;;;19.03;56.82
55010;BME280;40903;51.638;7.528;2022-07-10T06:32:46;101968.00;;;19.12;56.58
55010;BME280;40903;51.638;7.528;2022-07-10T06:35:12;101973.66;;;19.29;56.08
55010;BME280;40903;51.638;7.528;2022-07-10T06:37:37;101963.59;;;19.33;55.82
55010;BME280;40903;51.638;7.528;2022-07-10T06:40:03;101969.22;;;19.50;56.63
55010;BME280;40903;51.638;7.528;2022-07-10T06:42:29;101967.63;;;19.57;54.94
55010;BME280;40903;51.638;7.528;2022-07-10T06:44:54;101965.09;;;19.78;55.57
55010;BME280;40903;51.638;7.528;2022-07-10T06:47:20;101962.34;;;19.94;54.24
55010;BME280;40903;51.638;7.528;2022-07-10T06:50:05;101965.34;;;20.06;54.96
55010;BME280;40903;51.638;7.528;2022-07-10T06:52:34;101962.56;;;20.06;53.69
55010;BME280;40903;51.638;7.528;2022-07-10T06:55:03;101966.72;;;19.87;51.61
55010;BME280;40903;51.638;7.528;2022-07-10T06:57:29;101964.94;;;19.44;52.25
55010;BME280;40903;51.638;7.528;2022-07-10T06:59:55;101970.03;;;19.20;54.10
55010;BME280;40903;51.638;7.528;2022-07-10T07:02:20;101976.69;;;18.97;55.08
55010;BME280;40903;51.638;7.528;2022-07-10T07:04:46;101975.94;;;18.83;55.09
55010;BME280;40903;51.638;7.528;2022-07-10T07:07:14;101978.66;;;18.74;55.44
55010;BME280;40903;51.638;7.528;2022-07-10T07:09:40;101975.72;;;18.71;56.07
55010;BME280;40903;51.638;7.528;2022-07-10T07:12:06;101973.56;;;18.68;56.31
55010;BME280;40903;51.638;7.528;2022-07-10T07:14:32;101967.53;;;18.44;55.84
55010;BME280;40903;51.638;7.528;2022-07-10T07:16:58;101974.13;;;18.34;56.91
55010;BME280;40903;51.638;7.528;2022-07-10T07:19:30;101974.72;;;18.31;56.98
55010;BME280;40903;51.638;7.528;2022-07-10T07:21:59;101969.03;;;18.28;57.37
55010;BME280;40903;51.638;7.528;2022-07-10T07:24:43;101975.22;;;18.20;56.03
55010;BME280;40903;51.638;7.528;2022-07-10T07:27:10;101975.22;;;18.20;57.24
55010;BME280;40903;51.638;7.528;2022-07-10T07:29:35;101976.16;;;18.15;58.53
55010;BME280;40903;51.638;7.528;2022-07-10T07:32:01;101982.09;;;18.22;59.32
55010;BME280;40903;51.638;7.528;2022-07-10T07:34:26;101982.63;;;18.11;59.03
55010;BME280;40903;51.638;7.528;2022-07-10T07:36:52;101983.72;;;18.10;58.29
55010;BME280;40903;51.638;7.528;2022-07-10T07:39:17;101985.56;;;18.14;59.40
55010;BME280;40903;51.638;7.528;2022-07-10T07:41:42;101991.34;;;18.04;59.69
55010;BME280;40903;51.638;7.528;2022-07-10T07:44:08;101991.25;;;17.96;60.02
55010;BME280;40903;51.638;7.528;2022-07-10T07:46:33;101992.38;;;17.82;59.97
55010;BME280;40903;51.638;7.528;2022-07-10T07:48:59;101995.97;;;17.82;61.16
55010;BME280;40903;51.638;7.528;2022-07-10T07:51:25;101998.59;;;17.87;60.97
55010;BME280;40903;51.638;7.528;2022-07-10T07:53:50;101998.59;;;17.87;61.16
55010;BME280;40903;51.638;7.528;2022-07-10T07:56:15;102001.38;;;17.87;60.19
55010;BME280;40903;51.638;7.528;2022-07-10T07:58:41;102012.69;;;17.85;61.18
55010;BME280;40903;51.638;7.528;2022-07-10T08:01:06;102008.53;;;17.75;61.82
55010;BME280;40903;51.638;7.528;2022-07-10T08:03:32;101997.88;;;17.55;62.48
55010;BME280;40903;51.638;7.528;2022-07-10T08:05:57;101997.38;;;17.53;63.60
55010;BME280;40903;51.638;7.528;2022-07-10T08:08:22;102001.34;;;17.47;62.78
55010;BME280;40903;51.638;7.528;2022-07-10T08:10:48;101997.97;;;17.50;63.72
55010;BME280;40903;51.638;7.528;2022-07-10T08:13:13;101998.88;;;17.45;64.17
55010;BME280;40903;51.638;7.528;2022-07-10T08:15:38;101996.06;;;17.50;64.94
55010;BME280;40903;51.638;7.528;2022-07-10T08:18:04;102005.84;;;17.56;64.39
55010;BME280;40903;51.638;7.528;2022-07-10T08:20:30;101999.72;;;17.59;64.08
55010;BME280;40903;51.638;7.528;2022-07-10T08:22:56;101999.09;;;17.62;63.77
55010;BME280;40903;51.638;7.528;2022-07-10T08:25:22;102003.00;;;17.61;63.73
55010;BME280;40903;51.638;7.528;2022-07-10T08:27:47;101994.81;;;17.56;64.48
55010;BME280;40903;51.638;7.528;2022-07-10T08:30:13;101986.44;;;17.61;64.83
55010;BME280;40903;51.638;7.528;2022-07-10T08:32:39;101985.31;;;17.62;65.04
55010;BME280;40903;51.638;7.528;2022-07-10T08:35:05;101991.25;;;17.69;64.20
55010;BME280;40903;51.638;7.528;2022-07-10T08:37:42;101992.38;;;17.68;62.04
55010;BME280;40903;51.638;7.528;2022-07-10T08:40:12;101990.94;;;17.57;62.92
55010;BME280;40903;51.638;7.528;2022-07-10T08:42:38;101978.28;;;17.56;62.79
55010;BME280;40903;51.638;7.528;2022-07-10T08:45:04;101987.34;;;17.57;63.77
55010;BME280;40903;51.638;7.528;2022-07-10T08:47:30;101988.69;;;17.59;63.78
55010;BME280;40903;51.638;7.528;2022-07-10T08:49:59;101983.06;;;17.64;64.00
55010;BME280;40903;51.638;7.528;2022-07-10T08:52:43;101986.75;;;17.73;64.10
55010;BME280;40903;51.638;7.528;2022-07-10T08:55:16;101984.72;;;17.79;64.72
55010;BME280;40903;51.638;7.528;2022-07-10T08:57:42;101988.47;;;17.83;65.33
55010;BME280;40903;51.638;7.528;2022-07-10T09:00:09;101987.75;;;17.77;64.76
55010;BME280;40903;51.638;7.528;2022-07-10T09:02:35;101989.31;;;17.83;65.69
55010;BME280;40903;51.638;7.528;2022-07-10T09:05:00;101981.13;;;17.91;65.44
55010;BME280;40903;51.638;7.528;2022-07-10T09:07:34;101981.84;;;17.97;65.82
55010;BME280;40903;51.638;7.528;2022-07-10T09:10:05;101976.63;;;17.95;64.04
55010;BME280;40903;51.638;7.528;2022-07-10T09:12:49;101977.13;;;17.97;64.56
55010;BME280;40903;51.638;7.528;2022-07-10T09:15:17;101978.44;;;18.00;65.52
55010;BME280;40903;51.638;7.528;2022-07-10T09:17:56;101977.00;;;18.02;66.31
55010;BME280;40903;51.638;7.528;2022-07-10T09:20:32;101980.78;;;18.06;66.16
55010;BME280;40903;51.638;7.528;2022-07-10T09:22:59;101979.53;;;18.12;65.93
55010;BME280;40903;51.638;7.528;2022-07-10T09:25:35;101991.31;;;18.18;65.89
55010;BME280;40903;51.638;7.528;2022-07-10T09:28:01;101985.06;;;18.26;65.35
55010;BME280;40903;51.638;7.528;2022-07-10T09:30:38;101982.00;;;18.27;65.99
55010;BME280;40903;51.638;7.528;2022-07-10T09:33:39;101988.03;;;18.29;66.28
55010;BME280;40903;51.638;7.528;2022-07-10T09:36:07;101990.66;;;18.21;66.51
55010;BME280;40903;51.638;7.528;2022-07-10T09:41:17;101978.91;;;18.15;67.88
55010;BME280;40903;51.638;7.528;2022-07-10T09:43:44;101977.38;;;18.23;69.66
55010;BME280;40903;51.638;7.528;2022-07-10T09:46:11;101975.25;;;18.33;68.62
55010;BME280;40903;51.638;7.528;2022-07-10T09:48:36;101977.38;;;18.36;68.61
55010;BME280;40903;51.638;7.528;2022-07-10T09:51:02;101973.06;;;18.44;68.92
55010;BME280;40903;51.638;7.528;2022-07-10T09:53:27;101976.53;;;18.49;67.62
55010;BME280;40903;51.638;7.528;2022-07-10T09:55:54;101970.44;;;18.61;67.90
55010;BME280;40903;51.638;7.528;2022-07-10T09:58:26;101976.75;;;18.61;67.49
55010;BME280;40903;51.638;7.528;2022-07-10T10:00:55;101979.59;;;18.70;68.93
55010;BME280;40903;51.638;7.528;2022-07-10T10:03:23;101977.03;;;18.73;68.90
55010;BME280;40903;51.638;7.528;2022-07-10T10:06:03;101970.91;;;18.85;67.66
55010;BME280;40903;51.638;7.528;2022-07-10T10:08:56;101966.91;;;18.91;67.84
55010;BME280;40903;51.638;7.528;2022-07-10T10:11:26;101968.28;;;19.02;67.08
55010;BME280;40903;51.638;7.528;2022-07-10T10:13:52;101972.69;;;19.03;67.40
55010;BME280;40903;51.638;7.528;2022-07-10T10:16:22;101959.78;;;19.20;69.06
55010;BME280;40903;51.638;7.528;2022-07-10T10:18:47;101961.97;;;19.32;69.44
55010;BME280;40903;51.638;7.528;2022-07-10T10:21:32;101959.88;;;19.37;66.98
55010;BME280;40903;51.638;7.528;2022-07-10T10:24:00;101971.13;;;19.41;67.59
55010;BME280;40903;51.638;7.528;2022-07-10T10:26:25;101963.72;;;19.28;67.37
55010;BME280;40903;51.638;7.528;2022-07-10T10:28:52;101968.28;;;19.24;67.01
55010;BME280;40903;51.638;7.528;2022-07-10T10:31:19;101972.41;;;19.13;68.86
55010;BME280;40903;51.638;7.528;2022-07-10T10:33:45;101956.63;;;19.13;69.39
55010;BME280;40903;51.638;7.528;2022-07-10T10:39:17;101953.78;;;19.27;71.24
55010;BME280;40903;51.638;7.528;2022-07-10T10:41:52;101951.72;;;19.32;72.31
55010;BME280;40903;51.638;7.528;2022-07-10T10:47:03;101949.16;;;19.44;71.11
55010;BME280;40903;51.638;7.528;2022-07-10T10:49:52;101949.19;;;19.53;71.81
55010;BME280;40903;51.638;7.528;2022-07-10T10:52:19;101938.34;;;19.65;73.20
55010;BME280;40903;51.638;7.528;2022-07-10T11:00:06;101941.06;;;20.12;72.41
55010;BME280;40903;51.638;7.528;2022-07-10T11:02:34;101940.91;;;20.25;72.68
55010;BME280;40903;51.638;7.528;2022-07-10T11:10:27;101937.81;;;20.18;70.31
55010;BME280;40903;51.638;7.528;2022-07-10T11:13:02;101933.25;;;20.05;71.30
55010;BME280;40903;51.638;7.528;2022-07-10T11:15:30;101935.38;;;20.17;73.15
55010;BME280;40903;51.638;7.528;2022-07-10T11:20:41;101931.78;;;20.33;72.75
55010;BME280;40903;51.638;7.528;2022-07-10T11:26:08;101926.38;;;20.88;71.10
55010;BME280;40903;51.638;7.528;2022-07-10T11:31:09;101928.19;;;20.58;67.78
55010;BME280;40903;51.638;7.528;2022-07-10T11:33:45;101927.22;;;20.46;68.84
55010;BME280;40903;51.638;7.528;2022-07-10T11:36:24;101921.22;;;20.35;70.38
55010;BME280;40903;51.638;7.528;2022-07-10T11:39:01;101927.25;;;20.20;69.01
55010;BME280;40903;51.638;7.528;2022-07-10T11:41:27;101922.97;;;20.06;70.52
55010;BME280;40903;51.638;7.528;2022-07-10T11:43:54;101926.84;;;19.96;72.07
55010;BME280;40903;51.638;7.528;2022-07-10T11:46:21;101923.41;;;19.91;73.96
55010;BME280;40903;51.638;7.528;2022-07-10T11:48:50;101921.78;;;19.90;73.83
55010;BME280;40903;51.638;7.528;2022-07-10T11:51:20;101923.09;;;19.92;71.68
55010;BME280;40903;51.638;7.528;2022-07-10T11:56:32;101920.69;;;20.08;71.80
55010;BME280;40903;51.638;7.528;2022-07-10T11:59:16;101912.56;;;20.28;71.84
55010;BME280;40903;51.638;7.528;2022-07-10T12:01:45;101903.75;;;20.52;71.95
55010;BME280;40903;51.638;7.528;2022-07-10T12:04:11;101916.41;;;20.78;73.04
55010;BME280;40903;51.638;7.528;2022-07-10T12:06:42;101913.63;;;20.78;68.83
55010;BME280;40903;51.638;7.528;2022-07-10T12:09:12;101900.91;;;20.77;67.83
55010;BME280;40903;51.638;7.528;2022-07-10T12:11:39;101912.50;;;20.79;68.40
55010;BME280;40903;51.638;7.528;2022-07-10T12:14:16;101901.41;;;20.88;68.41
55010;BME280;40903;51.638;7.528;2022-07-10T12:16:46;101916.25;;;20.92;66.93
55010;BME280;40903;51.638;7.528;2022-07-10T12:19:16;101909.53;;;21.01;65.80
55010;BME280;40903;51.638;7.528;2022-07-10T12:21:43;101902.66;;;21.07;66.04
55010;BME280;40903;51.638;7.528;2022-07-10T12:24:11;101897.53;;;21.26;64.39
55010;BME280;40903;51.638;7.528;2022-07-10T12:26:40;101895.31;;;21.40;62.94
55010;BME280;40903;51.638;7.528;2022-07-10T12:31:51;101896.22;;;21.90;62.76
55010;BME280;40903;51.638;7.528;2022-07-10T12:34:17;101892.28;;;21.91;59.44
55010;BME280;40903;51.638;7.528;2022-07-10T12:36:47;101888.63;;;21.79;60.88
55010;BME280;40903;51.638;7.528;2022-07-10T12:39:30;101884.47;;;21.64;61.89
55010;BME280;40903;51.638;7.528;2022-07-10T12:42:06;101889.34;;;21.59;62.34
55010;BME280;40903;51.638;7.528;2022-07-10T12:47:07;101892.66;;;21.52;62.07
55010;BME280;40903;51.638;7.528;2022-07-10T12:49:56;101896.00;;;21.37;61.64
55010;BME280;40903;51.638;7.528;2022-07-10T12:52:36;101902.00;;;21.10;63.90
55010;BME280;40903;51.638;7.528;2022-07-10T13:00:15;101905.06;;;20.54;70.72
55010;BME280;40903;51.638;7.528;2022-07-10T13:02:41;101894.47;;;20.48;71.16
55010;BME280;40903;51.638;7.528;2022-07-10T13:05:07;101895.75;;;20.33;71.27
55010;BME280;40903;51.638;7.528;2022-07-10T13:07:34;101898.38;;;20.38;73.64
55010;BME280;40903;51.638;7.528;2022-07-10T13:10:04;101900.50;;;20.33;74.41
55010;BME280;40903;51.638;7.528;2022-07-10T13:12:33;101891.00;;;20.68;76.53
55010;BME280;40903;51.638;7.528;2022-07-10T13:15:03;101886.56;;;20.92;72.87
55010;BME280;40903;51.638;7.528;2022-07-10T13:17:28;101883.72;;;21.09;70.67
55010;BME280;40903;51.638;7.528;2022-07-10T13:19:53;101884.44;;;21.35;70.30
55010;BME280;40903;51.638;7.528;2022-07-10T13:22:19;101885.00;;;21.49;68.12
55010;BME280;40903;51.638;7.528;2022-07-10T13:24:44;101888.78;;;21.45;67.04
55010;BME280;40903;51.638;7.528;2022-07-10T13:27:09;101891.94;;;21.35;67.83
55010;BME280;40903;51.638;7.528;2022-07-10T13:29:35;101894.75;;;21.55;68.99
55010;BME280;40903;51.638;7.528;2022-07-10T13:32:01;101884.47;;;21.64;65.48